| Date | Time | Temp. (oF) | Dew Point (oF) | Rel. Hum. (%) | Press. (in.) | Wind Dir. | Wind Speed (mph) | Hourly Rainfall (in.) |
|
|---|---|---|---|---|---|---|---|---|---|
| 1 | 09/27 | 00:00 | 63 | 56 | 80 | 29.87 | ESE | 3 | 0.00 |
| 2 | 09/26 | 23:00 | 64 | 57 | 79 | 29.89 | SE | 4 | 0.00 |
| 3 | 09/26 | 22:00 | 64 | 56 | 78 | 29.89 | ESE | 2 | 0.00 |
| 4 | 09/26 | 21:00 | 65 | 56 | 74 | 29.93 | E | 3 | 0.00 |
| 5 | 09/26 | 20:00 | 65 | 55 | 71 | 29.93 | ESE | 5 | 0.00 |
| 6 | 09/26 | 19:00 | 65 | 54 | 70 | 29.94 | ESE | 11 | 0.00 |
| 7 | 09/26 | 18:00 | 65 | 54 | 69 | 29.94 | SE | 4 | 0.00 |
| 8 | 09/26 | 17:00 | 65 | 53 | 67 | 29.94 | SE | 4 | 0.00 |
| 9 | 09/26 | 16:00 | 65 | 54 | 69 | 29.95 | ESE | 9 | 0.00 |
| 10 | 09/26 | 15:00 | 64 | 54 | 72 | 29.99 | SE | 7 | 0.00 |
| 11 | 09/26 | 14:00 | 63 | 53 | 72 | 30.01 | ESE | 4 | 0.00 |
| 12 | 09/26 | 13:00 | 63 | 54 | 73 | 30.03 | E | 9 | 0.00 |
| 13 | 09/26 | 12:00 | 64 | 55 | 75 | 30.04 | SE | 8 | 0.00 |
| 14 | 09/26 | 11:00 | 62 | 55 | 78 | 30.05 | SE | 1 | 0.00 |
| 15 | 09/26 | 10:00 | 59 | 54 | 84 | 30.07 | E | 0 | 0.00 |
| 16 | 09/26 | 09:00 | 54 | 51 | 91 | 30.07 | NE | 0 | 0.00 |
| 17 | 09/26 | 08:00 | 48 | 46 | 95 | 30.09 | ENE | 0 | 0.00 |
| 18 | 09/26 | 07:00 | 46 | 44 | 94 | 30.09 | ENE | 0 | 0.00 |
| 19 | 09/26 | 06:00 | 46 | 44 | 94 | 30.08 | ENE | 0 | 0.00 |
| 20 | 09/26 | 05:00 | 46 | 44 | 93 | 30.08 | E | 0 | 0.00 |
| 21 | 09/26 | 04:00 | 46 | 43 | 91 | 30.09 | ESE | 0 | 0.00 |
| 22 | 09/26 | 03:00 | 47 | 43 | 89 | 30.09 | ESE | 0 | 0.00 |
| 23 | 09/26 | 02:00 | 48 | 44 | 88 | 30.10 | ENE | 0 | 0.00 |
| 24 | 09/26 | 01:00 | 49 | 44 | 86 | 30.11 | NE | 0 | 0.00 |